Markelsville, Pennsylvania
Current Conditions -  °F | °C
As of 12:56 AM on Wednesday 22 Oct 2014 (Local Time) from KCXY Reporting Station
Overcast Overcast  
Wind Chill: 56°   Ceiling: 3700
Heat Index: 56°   Visibility: 10mi
Dew Point: 48°   Wind: 7mph
Humidity: 75%   Direction: 330°NNW
Pressure: 29.91"   Gusts: NA
Location:  40.4932°N, 77.217°W
Report Text: KCXY 220456Z AUTO 33006KT 10SM BKN037 OVC049 13/09 A2991 RMK AO2 SLP131 T01330089 401830100
Loading
Personal Weather Stations






























Interactive Weather Map
Tropical Storm Tracking
New forecast layout! Learn more

10-Day Weather Forecast

Advertisements
Track Severe Weather on mobile